createdAt,value
2022-11-22T00:01:37.415Z,4.10
2022-11-22T00:04:39.997Z,3.94
2022-11-22T00:07:42.472Z,4.04
2022-11-22T00:10:45.036Z,3.88
2022-11-22T00:13:47.539Z,3.87
2022-11-22T00:16:50.237Z,3.89
2022-11-22T00:19:52.528Z,4.02
2022-11-22T00:22:56.692Z,3.86
2022-11-22T00:25:58.954Z,3.85
2022-11-22T00:29:01.463Z,3.98
2022-11-22T00:32:04.212Z,3.97
2022-11-22T00:35:07.353Z,3.79
2022-11-22T00:38:09.617Z,3.90
2022-11-22T00:41:12.159Z,3.93
2022-11-22T00:44:14.409Z,3.77
2022-11-22T00:47:16.989Z,3.76
2022-11-22T00:50:19.239Z,3.92
2022-11-22T00:53:22.471Z,3.81
2022-11-22T00:56:24.769Z,3.86
2022-11-22T00:59:27.669Z,4.01
2022-11-22T01:02:30.057Z,4.03
2022-11-22T01:05:32.687Z,4.02
2022-11-22T01:08:34.945Z,3.94
2022-11-22T01:11:37.442Z,4.12
2022-11-22T01:14:39.735Z,4.01
2022-11-22T01:17:42.261Z,4.14
2022-11-22T01:20:44.529Z,4.00
2022-11-22T01:23:47.114Z,4.13
2022-11-22T01:26:49.401Z,4.11
2022-11-22T01:29:51.919Z,4.08
2022-11-22T01:32:54.207Z,3.92
2022-11-22T01:35:58.245Z,3.92
2022-11-22T01:39:00.545Z,3.89
2022-11-22T01:42:03.096Z,4.03
2022-11-22T01:45:30.393Z,3.92
2022-11-22T01:48:48.249Z,4.06
2022-11-22T01:51:53.754Z,4.06
2022-11-22T01:55:02.401Z,4.02
2022-11-22T01:58:04.844Z,3.84
2022-11-22T02:01:07.708Z,3.95
2022-11-22T02:04:14.311Z,3.89
2022-11-22T02:07:24.224Z,3.82
2022-11-22T02:10:29.939Z,3.83
2022-11-22T02:13:37.426Z,3.80
2022-11-22T02:16:41.771Z,3.74
2022-11-22T02:19:47.350Z,3.90
2022-11-22T02:23:00.127Z,3.75
2022-11-22T02:26:03.971Z,3.91
2022-11-22T02:29:08.013Z,3.91
2022-11-22T02:32:10.616Z,3.79
2022-11-22T02:35:21.246Z,3.99
2022-11-22T02:38:30.545Z,3.86
2022-11-22T02:41:33.002Z,4.00
2022-11-22T02:44:35.642Z,4.11
2022-11-22T02:47:37.841Z,4.09
2022-11-22T02:50:40.869Z,3.98
2022-11-22T02:53:43.942Z,4.02
2022-11-22T02:56:47.243Z,4.20
2022-11-22T02:59:49.511Z,4.21
2022-11-22T03:02:52.135Z,4.24
2022-11-22T03:05:54.372Z,4.27
2022-11-22T03:08:57.244Z,4.31
2022-11-22T03:11:59.977Z,4.32
2022-11-22T03:15:02.876Z,4.18
2022-11-22T03:18:05.298Z,4.18
2022-11-22T03:21:09.788Z,4.32
2022-11-22T03:24:12.097Z,4.31
2022-11-22T03:27:14.604Z,4.34
2022-11-22T03:30:18.426Z,4.35
2022-11-22T03:33:20.945Z,4.38
2022-11-22T03:36:23.577Z,4.27
2022-11-22T03:39:26.109Z,4.46
2022-11-22T03:42:28.375Z,4.35
2022-11-22T03:45:30.964Z,4.38
2022-11-22T03:48:33.627Z,4.53
2022-11-22T03:51:36.104Z,4.53
2022-11-22T03:54:38.512Z,4.48
2022-11-22T03:57:41.091Z,4.39
2022-11-22T04:00:43.309Z,4.52
2022-11-22T04:03:45.835Z,4.52
2022-11-22T04:06:48.073Z,4.37
2022-11-22T04:09:50.599Z,4.34
2022-11-22T04:12:57.375Z,4.28
2022-11-22T04:15:59.900Z,4.22
2022-11-22T04:19:02.161Z,4.28
2022-11-22T04:22:05.119Z,4.07
2022-11-22T04:25:16.705Z,3.94
2022-11-22T04:28:24.550Z,4.08
2022-11-22T04:31:51.866Z,4.03
2022-11-22T04:34:54.314Z,3.86
2022-11-22T04:37:56.569Z,3.92
2022-11-22T04:40:59.063Z,3.82
2022-11-22T04:44:20.051Z,3.79
2022-11-22T04:47:42.168Z,3.66
2022-11-22T04:51:06.015Z,3.64
2022-11-22T04:54:08.565Z,3.53
2022-11-22T04:57:10.838Z,3.48
2022-11-22T05:00:13.467Z,3.41
2022-11-22T05:03:16.081Z,3.34
2022-11-22T05:06:18.790Z,3.40
2022-11-22T05:09:21.014Z,3.26
2022-11-22T05:12:23.527Z,3.25
2022-11-22T05:15:25.771Z,3.34
2022-11-22T05:18:29.242Z,3.15
2022-11-22T05:21:33.279Z,3.07
2022-11-22T05:24:35.862Z,3.18
2022-11-22T05:27:38.339Z,3.14
2022-11-22T05:30:41.563Z,3.04
2022-11-22T05:33:46.101Z,3.01
2022-11-22T05:36:48.647Z,2.91
2022-11-22T05:39:51.210Z,2.90
2022-11-22T05:42:54.011Z,2.74
2022-11-22T05:45:56.505Z,2.68
2022-11-22T05:48:59.108Z,2.83
2022-11-22T05:52:02.869Z,2.82
2022-11-22T05:55:05.440Z,2.82
2022-11-22T05:58:07.557Z,2.82
2022-11-22T06:01:11.735Z,2.79
2022-11-22T06:04:14.279Z,2.79
2022-11-22T06:07:16.750Z,2.82
2022-11-22T06:10:19.891Z,2.87
2022-11-22T06:13:22.319Z,2.74
2022-11-22T06:16:26.108Z,2.89
2022-11-22T06:19:28.824Z,2.91
2022-11-22T06:22:31.577Z,3.03
2022-11-22T06:25:33.774Z,2.95
2022-11-22T06:28:38.314Z,3.09
2022-11-22T06:31:40.622Z,3.15
2022-11-22T06:34:43.190Z,3.28
2022-11-22T06:37:45.465Z,3.31
2022-11-22T06:40:48.049Z,3.22
2022-11-22T06:43:52.123Z,3.30
2022-11-22T06:46:54.727Z,3.24
2022-11-22T06:49:56.925Z,3.44
2022-11-22T06:52:59.484Z,3.50
2022-11-22T06:56:04.500Z,3.53
2022-11-22T06:59:07.791Z,3.58
2022-11-22T07:02:12.484Z,3.62
2022-11-22T07:05:25.783Z,3.51
2022-11-22T07:08:28.731Z,3.41
2022-11-22T07:11:32.650Z,3.55
2022-11-22T07:14:34.920Z,3.73
2022-11-22T07:17:37.627Z,3.61
2022-11-22T07:20:39.906Z,3.63
2022-11-22T07:23:43.919Z,3.68
2022-11-22T07:26:46.211Z,3.76
2022-11-22T07:29:48.947Z,3.80
2022-11-22T07:32:51.317Z,3.81
2022-11-22T07:35:54.192Z,3.85
2022-11-22T07:38:56.630Z,3.72
2022-11-22T07:41:59.246Z,3.88
2022-11-22T07:45:01.483Z,3.80
2022-11-22T07:48:04.218Z,3.79
2022-11-22T07:51:07.643Z,3.93
2022-11-22T07:54:13.245Z,4.01
2022-11-22T07:57:15.536Z,4.05
2022-11-22T08:00:19.188Z,4.12
2022-11-22T08:03:25.403Z,4.16
2022-11-22T08:06:30.865Z,4.24
2022-11-22T08:09:33.444Z,4.32
2022-11-22T08:12:35.774Z,4.28
2022-11-22T08:15:38.428Z,4.46
2022-11-22T08:18:42.115Z,4.53
2022-11-22T08:21:45.640Z,4.56
2022-11-22T08:24:47.987Z,4.48
2022-11-22T08:27:50.558Z,4.64
2022-11-22T08:30:58.455Z,4.66
2022-11-22T08:34:01.271Z,4.53
2022-11-22T08:37:03.526Z,4.74
2022-11-22T08:40:06.716Z,4.65
2022-11-22T08:43:08.993Z,4.83
2022-11-22T08:46:11.852Z,4.89
2022-11-22T08:49:14.074Z,4.84
2022-11-22T08:52:16.740Z,4.91
2022-11-22T08:55:19.298Z,5.09
2022-11-22T08:58:22.664Z,5.22
2022-11-22T09:01:25.021Z,5.18
2022-11-22T09:04:27.692Z,5.36
2022-11-22T09:10:52.728Z,5.46
2022-11-22T09:13:55.279Z,5.52
2022-11-22T09:16:57.831Z,5.72
2022-11-22T09:20:00.107Z,5.81
2022-11-22T09:23:04.174Z,5.85
2022-11-22T09:26:12.208Z,5.97
2022-11-22T09:29:15.955Z,5.94
2022-11-22T09:32:18.472Z,5.88
2022-11-22T09:35:22.122Z,5.88
2022-11-22T09:38:24.428Z,6.09
2022-11-22T09:41:45.449Z,6.06
2022-11-22T09:45:05.938Z,6.11
2022-11-22T09:48:44.677Z,6.02
2022-11-22T09:51:54.329Z,6.14
2022-11-22T09:55:04.199Z,6.28
2022-11-22T09:58:38.739Z,6.37
2022-11-22T10:01:47.560Z,6.49
2022-11-22T10:04:54.493Z,6.59
2022-11-22T10:08:08.033Z,6.70
2022-11-22T10:11:38.489Z,6.96
2022-11-22T10:14:47.849Z,7.25
2022-11-22T10:17:54.923Z,8.33
2022-11-22T10:20:57.239Z,8.61
2022-11-22T10:23:59.913Z,8.25
2022-11-22T10:27:02.925Z,8.20
2022-11-22T10:30:13.479Z,8.18
2022-11-22T10:33:27.948Z,7.99
2022-11-22T10:36:59.563Z,7.88
2022-11-22T10:40:23.709Z,7.72
2022-11-22T10:43:32.957Z,7.82
2022-11-22T10:46:55.215Z,7.85
2022-11-22T10:50:20.405Z,7.77
2022-11-22T10:53:46.117Z,7.66
2022-11-22T10:56:50.623Z,7.62
2022-11-22T11:00:06.698Z,7.57
2022-11-22T11:03:13.245Z,7.50
2022-11-22T11:07:11.805Z,7.43
2022-11-22T11:10:26.396Z,7.39
2022-11-22T11:13:41.806Z,7.43
2022-11-22T11:16:44.625Z,7.48
2022-11-22T11:19:49.893Z,7.50
2022-11-22T11:23:13.741Z,7.40
2022-11-22T11:26:28.645Z,7.50
2022-11-22T11:29:38.159Z,7.60
2022-11-22T11:32:55.306Z,7.91
2022-11-22T11:36:16.543Z,7.92
2022-11-22T11:39:24.627Z,7.90
2022-11-22T11:42:32.948Z,7.76
2022-11-22T11:45:35.333Z,7.88
2022-11-22T11:48:38.485Z,7.66
2022-11-22T11:51:45.070Z,7.60
2022-11-22T11:54:51.471Z,7.54
2022-11-22T11:57:54.192Z,7.55
2022-11-22T12:00:57.626Z,7.46
2022-11-22T12:04:03.014Z,7.49
2022-11-22T12:07:20.372Z,7.50
2022-11-22T12:10:49.743Z,7.43
2022-11-22T12:17:30.300Z,7.47
2022-11-22T12:20:50.108Z,7.30
2022-11-22T12:27:38.125Z,7.27
2022-11-22T12:30:43.700Z,7.30
2022-11-22T12:34:10.446Z,7.31
2022-11-22T12:37:28.993Z,7.28
2022-11-22T12:40:41.853Z,7.17
2022-11-22T12:43:51.095Z,7.08
2022-11-22T12:47:00.300Z,7.26
2022-11-22T12:50:37.672Z,7.27
2022-11-22T12:53:43.746Z,7.26
2022-11-22T12:56:58.936Z,7.05
2022-11-22T13:00:14.584Z,6.98
2022-11-22T13:03:58.026Z,6.98
2022-11-22T13:07:15.377Z,7.12
2022-11-22T13:10:50.664Z,6.99
2022-11-22T13:14:20.715Z,6.85
2022-11-22T13:17:26.135Z,6.90
2022-11-22T13:20:41.145Z,6.89
2022-11-22T13:24:35.083Z,6.65
2022-11-22T13:27:44.617Z,6.72
2022-11-22T13:31:05.845Z,6.70
2022-11-22T13:34:25.559Z,6.57
2022-11-22T13:37:31.311Z,6.64
2022-11-22T13:40:36.728Z,6.49
2022-11-22T13:43:52.129Z,6.51
2022-11-22T13:47:02.218Z,6.33
2022-11-22T13:50:42.094Z,6.48
2022-11-22T13:53:46.759Z,6.52
2022-11-22T13:57:00.510Z,6.35
2022-11-22T14:00:14.994Z,6.38
2022-11-22T14:03:37.498Z,6.33
2022-11-22T14:06:46.262Z,6.23
2022-11-22T14:09:48.665Z,6.18
2022-11-22T14:12:58.133Z,6.14
2022-11-22T14:16:08.176Z,5.91
2022-11-22T14:19:27.409Z,5.92
2022-11-22T14:22:56.786Z,6.03
2022-11-22T14:26:11.325Z,6.01
2022-11-22T14:29:32.304Z,5.93
2022-11-22T14:33:03.748Z,5.92
2022-11-22T14:36:06.292Z,5.95
2022-11-22T14:39:45.600Z,5.92
2022-11-22T14:42:52.130Z,5.91
2022-11-22T14:46:00.642Z,5.68
2022-11-22T14:49:42.546Z,5.82
2022-11-22T14:52:48.113Z,5.77
2022-11-22T14:55:56.317Z,5.63
2022-11-22T14:59:01.490Z,5.73
2022-11-22T15:02:22.860Z,5.71
2022-11-22T15:09:16.789Z,5.69
2022-11-22T15:09:48.855Z,5.67
2022-11-22T15:13:03.821Z,5.64
2022-11-22T15:58:03.131Z,5.58
2022-11-22T16:01:18.286Z,5.55
2022-11-22T16:04:29.388Z,5.51
2022-11-22T16:07:39.660Z,5.46
2022-11-22T16:10:44.849Z,5.37
2022-11-22T16:13:47.241Z,5.44
2022-11-22T16:16:49.799Z,5.26
2022-11-22T16:19:54.213Z,5.38
2022-11-22T16:23:30.100Z,5.38
2022-11-22T16:26:32.600Z,5.40
2022-11-22T16:29:37.096Z,5.29
2022-11-22T16:32:39.375Z,5.45
2022-11-22T16:35:41.991Z,5.26
2022-11-22T16:38:45.208Z,5.44
2022-11-22T16:41:48.148Z,5.47
2022-11-22T16:44:51.179Z,5.43
2022-11-22T16:48:16.613Z,5.30
2022-11-22T16:51:28.521Z,5.46
2022-11-22T16:54:32.518Z,5.44
2022-11-22T16:57:34.836Z,5.42
2022-11-22T17:00:38.002Z,5.42
2022-11-22T17:03:40.369Z,5.43
2022-11-22T17:06:43.962Z,5.37
2022-11-22T17:09:46.231Z,5.31
2022-11-22T17:12:49.053Z,5.30
2022-11-22T17:15:53.202Z,5.38
2022-11-22T17:18:55.768Z,5.47
2022-11-22T17:21:58.056Z,5.34
2022-11-22T17:25:00.647Z,5.49
2022-11-22T17:28:02.907Z,5.52
2022-11-22T17:31:12.096Z,5.42
2022-11-22T17:34:14.527Z,5.52
2022-11-22T17:37:17.131Z,5.38
2022-11-22T17:40:19.475Z,5.51
2022-11-22T17:43:22.024Z,5.50
2022-11-22T17:46:25.000Z,5.49
2022-11-22T17:49:27.630Z,5.35
2022-11-22T17:52:29.973Z,5.38
2022-11-22T17:55:48.320Z,5.30
2022-11-22T17:58:54.998Z,5.50
2022-11-22T18:01:58.624Z,5.37
2022-11-22T18:05:04.475Z,5.40
2022-11-22T18:08:06.760Z,5.53
2022-11-22T18:11:10.232Z,5.57
2022-11-22T18:14:12.563Z,5.57
2022-11-22T18:17:15.124Z,5.62
2022-11-22T18:20:17.419Z,5.62
2022-11-22T18:23:21.442Z,5.63
2022-11-22T18:26:38.951Z,5.51
2022-11-22T18:29:43.292Z,5.66
2022-11-22T18:32:45.719Z,5.52
2022-11-22T18:35:56.086Z,5.49
2022-11-22T18:38:58.903Z,5.69
2022-11-22T18:42:01.575Z,5.57
2022-11-22T18:45:04.255Z,5.69
2022-11-22T18:48:06.884Z,5.69
2022-11-22T18:51:10.633Z,5.67
2022-11-22T18:54:13.486Z,5.69
2022-11-22T18:57:16.716Z,5.76
2022-11-22T19:00:21.190Z,5.71
2022-11-22T19:03:23.466Z,5.79
2022-11-22T19:06:26.217Z,5.82
2022-11-22T19:09:28.519Z,5.70
2022-11-22T19:12:31.154Z,5.69
2022-11-22T19:15:33.530Z,5.83
2022-11-22T19:18:42.776Z,5.78
2022-11-22T19:21:45.390Z,5.72
2022-11-22T19:24:47.966Z,5.85
2022-11-22T19:27:50.222Z,5.74
2022-11-22T19:30:52.799Z,5.84
2022-11-22T19:33:55.768Z,5.83
2022-11-22T19:37:00.275Z,5.84
2022-11-22T19:40:02.605Z,5.83
2022-11-22T19:43:05.195Z,5.83
2022-11-22T19:46:07.659Z,5.69
2022-11-22T19:49:10.635Z,5.63
2022-11-22T19:52:12.888Z,5.74
2022-11-22T19:55:15.400Z,5.59
2022-11-22T19:58:20.382Z,5.62
2022-11-22T20:01:23.785Z,5.61
2022-11-22T20:04:26.403Z,5.73
2022-11-22T20:07:30.076Z,5.76
2022-11-22T20:10:32.886Z,5.62
2022-11-22T20:13:37.171Z,5.55
2022-11-22T20:16:43.201Z,5.72
2022-11-22T20:19:45.497Z,5.71
2022-11-22T20:22:48.058Z,5.72
2022-11-22T20:25:50.327Z,5.71
2022-11-22T20:29:01.712Z,5.71
2022-11-22T20:32:05.015Z,5.63
2022-11-22T20:35:07.942Z,5.56
2022-11-22T20:38:10.370Z,5.53
2022-11-22T20:41:14.733Z,5.75
2022-11-22T20:44:18.195Z,5.77
2022-11-22T20:47:22.367Z,5.78
2022-11-22T20:50:24.777Z,5.80
2022-11-22T20:53:28.911Z,5.81
2022-11-22T20:56:31.462Z,5.78
2022-11-22T20:59:34.015Z,5.80
2022-11-22T21:02:36.346Z,5.83
2022-11-22T21:05:39.064Z,5.82
2022-11-22T21:08:41.729Z,5.73
2022-11-22T21:11:45.488Z,5.75
2022-11-22T21:14:51.331Z,5.73
2022-11-22T21:18:23.455Z,5.84
2022-11-22T21:21:23.027Z,5.82
2022-11-22T21:24:25.922Z,5.63
2022-11-22T21:27:28.226Z,5.80
2022-11-22T21:30:30.845Z,5.66
2022-11-22T21:33:35.185Z,5.64
2022-11-22T21:36:39.724Z,5.67
2022-11-22T21:39:42.046Z,5.80
2022-11-22T21:42:44.728Z,5.83
2022-11-22T21:45:48.482Z,5.80
2022-11-22T21:48:51.864Z,5.77
2022-11-22T21:51:55.616Z,5.85
2022-11-22T21:54:58.212Z,5.79
2022-11-22T21:58:00.459Z,5.71
2022-11-22T22:01:08.261Z,5.55
2022-11-22T22:04:14.003Z,5.93
2022-11-22T22:07:30.108Z,5.94
2022-11-22T22:10:38.883Z,5.98
2022-11-22T22:13:41.194Z,6.01
2022-11-22T22:16:43.717Z,6.04
2022-11-22T22:19:49.406Z,5.99
2022-11-22T22:22:52.216Z,6.02
2022-11-22T22:26:02.302Z,5.90
2022-11-22T22:29:05.086Z,6.03
2022-11-22T22:32:10.555Z,5.85
2022-11-22T22:35:13.468Z,6.05
2022-11-22T22:38:15.713Z,5.98
2022-11-22T22:41:18.764Z,5.87
2022-11-22T22:44:20.999Z,5.73
2022-11-22T22:47:23.503Z,5.84
2022-11-22T22:50:25.775Z,5.98
2022-11-22T22:53:30.676Z,5.96
2022-11-22T22:56:32.970Z,5.91
2022-11-22T22:59:35.543Z,5.87
2022-11-22T23:02:38.849Z,5.90
2022-11-22T23:05:41.774Z,5.71
2022-11-22T23:08:46.743Z,5.83
2022-11-22T23:12:21.546Z,5.82
2022-11-22T23:15:43.909Z,5.75
2022-11-22T23:18:46.513Z,5.69
2022-11-22T23:21:49.641Z,5.76
2022-11-22T23:24:52.138Z,5.64
2022-11-22T23:27:54.397Z,5.75
2022-11-22T23:30:57.939Z,5.77
2022-11-22T23:34:01.477Z,5.76
2022-11-22T23:37:04.029Z,5.62
2022-11-22T23:40:07.199Z,5.72
2022-11-22T23:43:09.881Z,5.70
2022-11-22T23:46:16.291Z,5.50
2022-11-22T23:49:18.947Z,5.69
2022-11-22T23:52:21.213Z,5.65
2022-11-22T23:55:23.703Z,5.46
2022-11-22T23:58:30.090Z,5.60
